Time;durP1;ratioP1;P1;durP2;ratioP2;P2;SDS_P1;SDS_P2;PMS_P1;PMS_P2;Temp;Humidity;BMP_temperature;BMP_pressure;BME280_temperature;BME280_humidity;BME280_pressure;Samples;Min_cycle;Max_cycle;Signal;HPM_P1;HPM_P2
2022/09/04 00:03:38;;;;;;;2.70;1.45;;;;;;;15.07;75.76;101478.78;10459842;28;20118;-70
2022/09/04 00:08:50;;;;;;;2.15;1.35;;;;;;;15.02;75.95;101475.97;10459713;28;20036;-71
2022/09/04 00:13:56;;;;;;;4.45;2.25;;;;;;;14.81;76.34;101458.41;10424766;28;20049;-70
2022/09/04 00:19:06;;;;;;;3.42;1.58;;;;;;;14.92;76.39;101472.06;10384526;28;20117;-70
2022/09/04 00:24:09;;;;;;;2.58;1.63;;;;;;;14.81;77.12;101475.84;10417989;28;20430;-70
2022/09/04 00:29:22;;;;;;;7.35;1.70;;;;;;;14.82;77.42;101479.47;10421406;28;20041;-70
2022/09/04 00:34:40;;;;;;;5.82;2.38;;;;;;;14.76;77.41;101494.38;10428053;28;20142;-70
2022/09/04 00:39:45;;;;;;;4.30;2.53;;;;;;;14.73;77.79;101502.13;10375416;28;20038;-71
2022/09/04 00:45:18;;;;;;;2.42;1.73;;;;;;;14.57;78.44;101480.13;10373752;28;20092;-70
2022/09/04 00:50:36;;;;;;;3.53;1.60;;;;;;;14.62;78.58;101494.03;10413105;28;20038;-70
2022/09/04 00:56:06;;;;;;;4.10;1.85;;;;;;;14.59;78.81;101517.56;10415230;28;20100;-70
2022/09/04 01:01:06;;;;;;;3.03;1.40;;;;;;;14.27;79.43;101485.16;10405846;28;20481;-70
2022/09/04 01:06:16;;;;;;;4.88;1.40;;;;;;;14.48;80.31;101533.22;10414876;28;20040;-71
2022/09/04 01:11:42;;;;;;;3.20;1.20;;;;;;;14.39;81.41;101531.25;10416630;28;20065;-70
2022/09/04 01:16:53;;;;;;;3.95;1.30;;;;;;;14.19;82.02;101516.09;10405779;28;20029;-70
2022/09/04 01:21:56;;;;;;;8.02;1.98;;;;;;;14.19;83.00;101540.19;10398430;28;20103;-71
2022/09/04 01:27:10;;;;;;;5.22;3.63;;;;;;;14.08;83.81;101540.09;10415439;28;20287;-70
2022/09/04 01:32:49;;;;;;;6.35;2.97;;;;;;;14.10;84.30;101548.97;10399518;28;20556;-70
2022/09/04 01:38:15;;;;;;;2.42;1.70;;;;;;;14.05;84.49;101553.59;10412844;28;20034;-70
2022/09/04 01:43:19;;;;;;;4.53;1.63;;;;;;;13.92;85.52;101533.53;10373223;28;20046;-70
2022/09/04 01:48:40;;;;;;;1.90;1.17;;;;;;;14.01;85.91;101556.06;10375934;28;20041;-70
2022/09/04 01:53:41;;;;;;;4.07;1.38;;;;;;;13.97;87.28;101565.16;10453515;28;20096;-71
2022/09/04 01:59:02;;;;;;;5.10;1.55;;;;;;;13.89;87.00;101561.75;10420940;28;20045;-70
2022/09/04 02:04:20;;;;;;;2.42;1.42;;;;;;;13.86;87.95;101567.81;10414507;28;20251;-70
2022/09/04 02:09:56;;;;;;;3.95;1.17;;;;;;;13.79;88.52;101575.47;10374630;28;20045;-70
2022/09/04 02:15:24;;;;;;;3.42;1.70;;;;;;;13.75;89.18;101579.88;10371005;28;20042;-70
2022/09/04 02:20:26;;;;;;;4.18;2.22;;;;;;;13.59;89.52;101556.69;10379663;28;20096;-70
2022/09/04 02:25:39;;;;;;;4.78;1.48;;;;;;;13.62;90.33;101575.56;10395405;28;20048;-70
2022/09/04 02:30:49;;;;;;;2.80;1.40;;;;;;;13.50;90.86;101566.56;10415466;28;20037;-70
2022/09/04 02:36:04;;;;;;;5.18;1.70;;;;;;;13.45;91.58;101567.31;10403858;28;20049;-70
2022/09/04 02:41:08;;;;;;;4.38;1.20;;;;;;;13.41;92.19;101568.91;10373663;28;20529;-70
2022/09/04 02:46:18;;;;;;;4.70;1.50;;;;;;;13.39;93.27;101573.03;10379937;28;20051;-70
2022/09/04 02:51:40;;;;;;;2.20;1.40;;;;;;;13.30;94.22;101578.16;10413729;28;20049;-71
2022/09/04 02:56:59;;;;;;;4.93;1.80;;;;;;;13.19;95.38;101576.31;10401161;28;20042;-70
2022/09/04 03:02:03;;;;;;;4.03;1.48;;;;;;;13.08;96.64;101584.47;10373082;28;20076;-70
2022/09/04 03:07:28;;;;;;;3.15;1.60;;;;;;;12.97;97.17;101573.50;10367379;28;20079;-70
2022/09/04 03:12:33;;;;;;;2.83;1.60;;;;;;;13.00;98.21;101592.34;10396898;28;20076;-70
2022/09/04 03:17:57;;;;;;;6.90;1.50;;;;;;;12.96;98.92;101593.94;10412288;28;20117;-70
2022/09/04 03:23:19;;;;;;;4.00;1.63;;;;;;;12.85;99.83;101576.38;10393674;28;20046;-70
2022/09/04 03:28:52;;;;;;;3.33;1.60;;;;;;;12.83;100.00;101589.59;10377762;28;20042;-70
2022/09/04 03:34:34;;;;;;;3.42;2.00;;;;;;;12.71;100.00;101586.91;10416589;28;20067;-70
2022/09/04 03:39:44;;;;;;;3.88;1.67;;;;;;;12.70;100.00;101602.66;10417319;28;20048;-70
2022/09/04 03:44:54;;;;;;;5.13;1.92;;;;;;;12.61;100.00;101598.66;10418698;28;20044;-70
2022/09/04 03:50:13;;;;;;;11.13;2.55;;;;;;;12.60;100.00;101618.22;10418066;28;20037;-70
2022/09/04 03:55:19;;;;;;;4.28;1.80;;;;;;;12.54;100.00;101617.31;10419551;28;20045;-70
2022/09/04 04:00:20;;;;;;;2.47;1.65;;;;;;;12.43;100.00;101602.47;10419077;28;20048;-70
2022/09/04 04:05:35;;;;;;;3.42;2.03;;;;;;;12.40;100.00;101607.66;10433421;28;20069;-70
2022/09/04 04:10:57;;;;;;;3.08;1.65;;;;;;;12.28;100.00;101594.75;10458782;28;20039;-70
2022/09/04 04:16:04;;;;;;;6.78;2.08;;;;;;;12.40;100.00;101619.56;10442583;28;20044;-70
2022/09/04 04:21:07;;;;;;;4.60;1.83;;;;;;;12.37;100.00;101628.31;10460643;28;20045;-69
2022/09/04 04:26:29;;;;;;;2.40;1.75;;;;;;;12.30;100.00;101625.72;10458582;28;20041;-70
2022/09/04 04:31:38;;;;;;;3.30;1.90;;;;;;;12.23;100.00;101636.06;10375688;28;20425;-70
2022/09/04 04:36:52;;;;;;;5.18;2.15;;;;;;;12.17;100.00;101648.09;10413206;28;20026;-70
2022/09/04 04:42:04;;;;;;;2.75;1.85;;;;;;;12.06;100.00;101624.97;10414607;28;20045;-70
2022/09/04 04:47:14;;;;;;;6.20;2.50;;;;;;;11.78;100.00;101578.00;10417046;28;20068;-70
2022/09/04 04:52:20;;;;;;;5.55;2.03;;;;;;;12.12;100.00;101650.75;10414749;28;20041;-70
2022/09/04 04:57:58;;;;;;;6.63;2.30;;;;;;;12.03;100.00;101654.97;10375430;28;20053;-70
2022/09/04 05:03:36;;;;;;;2.88;1.75;;;;;;;12.11;100.00;101672.03;10365755;28;20090;-70
2022/09/04 05:09:11;;;;;;;4.13;1.98;;;;;;;12.22;100.00;101713.63;10387632;28;20080;-69
2022/09/04 05:14:47;;;;;;;4.22;2.25;;;;;;;12.33;100.00;101690.66;10413992;28;20053;-70
2022/09/04 05:20:15;;;;;;;3.20;1.60;;;;;;;12.60;100.00;101704.69;10414662;28;20105;-70
2022/09/04 05:25:48;;;;;;;4.70;1.70;;;;;;;12.75;100.00;101717.94;10415504;28;20042;-70
2022/09/04 05:31:01;;;;;;;6.18;1.90;;;;;;;12.81;100.00;101716.13;10405226;28;20061;-70
2022/09/04 05:36:14;;;;;;;4.85;1.80;;;;;;;12.80;100.00;101707.00;10411900;28;20030;-70
2022/09/04 05:41:42;;;;;;;4.53;2.10;;;;;;;12.96;100.00;101733.00;10412285;28;20033;-70
2022/09/04 05:46:49;;;;;;;6.07;1.95;;;;;;;13.02;100.00;101737.53;10412329;28;20064;-70
2022/09/04 05:52:31;;;;;;;3.05;1.85;;;;;;;13.12;100.00;101743.22;10415671;28;20089;-70
2022/09/04 05:57:34;;;;;;;8.00;2.13;;;;;;;13.26;100.00;101748.41;10411718;28;20041;-71
2022/09/04 06:02:43;;;;;;;2.85;1.70;;;;;;;13.39;100.00;101734.28;10374528;28;20073;-70
2022/09/04 06:08:05;;;;;;;2.92;1.75;;;;;;;13.55;100.00;101740.91;10421564;28;20036;-70
2022/09/04 06:13:34;;;;;;;4.72;1.60;;;;;;;13.80;100.00;101742.38;10454903;28;20492;-70
2022/09/04 06:18:58;;;;;;;2.22;1.80;;;;;;;14.27;100.00;101745.50;10452676;28;20048;-71
2022/09/04 06:24:15;;;;;;;3.28;1.98;;;;;;;14.75;100.00;101744.97;10396431;28;20065;-70
2022/09/04 06:29:38;;;;;;;5.10;2.00;;;;;;;15.13;100.00;101742.00;10429310;28;20048;-70
2022/09/04 06:35:23;;;;;;;2.95;1.98;;;;;;;15.11;100.00;101752.53;10396778;28;20049;-65
2022/09/04 06:40:47;;;;;;;6.35;2.10;;;;;;;15.03;100.00;101735.53;10422724;28;20045;-70
2022/09/04 06:46:10;;;;;;;5.88;2.47;;;;;;;15.17;100.00;101758.13;10431756;28;20063;-70
2022/09/04 06:51:32;;;;;;;5.95;2.47;;;;;;;15.38;100.00;101757.19;10454772;28;20048;-70
2022/09/04 06:56:52;;;;;;;6.28;2.30;;;;;;;15.62;100.00;101759.59;10424640;28;20086;-70
2022/09/04 07:02:21;;;;;;;5.07;2.80;;;;;;;15.77;99.11;101751.38;10375994;28;20414;-70
2022/09/04 07:07:38;;;;;;;4.82;2.60;;;;;;;15.57;98.55;101693.78;10394925;28;20058;-70
2022/09/04 07:12:51;;;;;;;4.63;2.05;;;;;;;16.08;97.63;101752.41;10405028;28;20042;-71
2022/09/04 07:18:29;;;;;;;4.88;2.05;;;;;;;16.34;95.57;101758.91;10421686;28;20045;-70
2022/09/04 07:23:51;;;;;;;5.80;1.80;;;;;;;16.58;93.18;101752.91;10411367;28;20462;-71
2022/09/04 07:29:02;;;;;;;6.90;2.10;;;;;;;16.36;92.64;101671.66;10416458;28;20100;-70
2022/09/04 07:34:25;;;;;;;5.60;1.95;;;;;;;17.13;90.98;101751.34;10418973;28;20037;-70
2022/09/04 07:39:34;;;;;;;8.25;1.98;;;;;;;17.30;89.59;101747.44;10436086;28;20530;-66
2022/09/04 07:45:15;;;;;;;4.65;2.22;;;;;;;17.67;89.28;101771.38;10434362;28;20099;-70
2022/09/04 07:50:34;;;;;;;4.45;1.90;;;;;;;17.95;87.39;101759.66;10437343;28;20119;-71
2022/09/04 07:55:40;;;;;;;6.72;2.35;;;;;;;18.20;85.15;101760.69;10416237;28;20116;-70
2022/09/04 08:00:53;;;;;;;3.90;2.00;;;;;;;18.35;84.85;101757.00;10451436;28;20037;-70
2022/09/04 08:05:59;;;;;;;8.35;2.35;;;;;;;18.55;84.61;101767.22;10415430;28;20508;-71
2022/09/04 08:11:31;;;;;;;4.90;2.10;;;;;;;18.69;83.39;101768.28;10435509;28;20135;-71
2022/09/04 08:16:55;;;;;;;5.55;2.08;;;;;;;18.93;83.65;101787.13;10439420;28;20067;-71
2022/09/04 08:21:56;;;;;;;3.83;2.47;;;;;;;19.01;82.94;101769.78;10431909;28;20053;-69
2022/09/04 08:27:26;;;;;;;7.20;2.33;;;;;;;19.24;82.35;101786.91;10403629;28;20056;-71
2022/09/04 08:32:27;;;;;;;6.80;2.13;;;;;;;19.54;81.10;101797.84;10433904;28;20051;-70
2022/09/04 08:37:38;;;;;;;3.10;2.20;;;;;;;19.83;80.26;101783.09;10437104;28;20105;-71
2022/09/04 08:43:05;;;;;;;11.05;2.15;;;;;;;20.43;78.76;101798.63;10435434;28;20513;-70
2022/09/04 08:48:20;;;;;;;4.85;1.90;;;;;;;20.86;76.80;101790.25;10418241;28;20045;-71
2022/09/04 08:53:48;;;;;;;5.25;1.80;;;;;;;21.18;75.54;101789.47;10433442;28;20041;-71
2022/09/04 08:59:07;;;;;;;;;;;;;;;21.29;75.16;101792.94;10395097;28;20041;-71
2022/09/04 09:04:10;;;;;;;2.92;1.67;;;;;;;21.55;73.71;101797.03;10419133;28;19936;-71
2022/09/04 09:09:18;;;;;;;6.68;2.08;;;;;;;21.81;73.11;101788.19;10378277;28;20402;-71
2022/09/04 09:14:46;;;;;;;2.80;1.70;;;;;;;22.11;71.33;101785.91;10427557;28;20497;-72
2022/09/04 09:20:02;;;;;;;4.95;1.92;;;;;;;22.47;70.38;101793.63;10457693;28;20463;-71
2022/09/04 09:25:19;;;;;;;5.00;1.83;;;;;;;22.80;69.86;101779.44;10456829;28;20033;-72
2022/09/04 09:30:20;;;;;;;3.85;1.50;;;;;;;22.90;68.42;101771.63;10441847;28;20065;-72
2022/09/04 09:35:53;;;;;;;2.83;1.20;;;;;;;23.32;66.65;101774.31;10428316;28;20036;-71
2022/09/04 09:41:09;;;;;;;4.35;1.30;;;;;;;23.45;65.34;101783.81;10428818;28;20409;-72
2022/09/04 09:46:44;;;;;;;4.85;1.60;;;;;;;23.54;65.16;101773.47;10427085;28;20092;-71
2022/09/04 09:52:06;;;;;;;5.22;1.88;;;;;;;23.56;65.12;101774.81;10425294;28;20056;-72
2022/09/04 09:57:45;;;;;;;3.97;1.40;;;;;;;23.79;64.13;101774.78;10374116;28;20038;-72
2022/09/04 10:03:23;;;;;;;2.80;1.40;;;;;;;24.11;63.64;101761.56;10408906;28;20047;-72
2022/09/04 10:09:01;;;;;;;3.33;1.60;;;;;;;24.25;62.84;101756.63;10426820;28;20049;-72
2022/09/04 10:14:08;;;;;;;3.35;1.27;;;;;;;24.33;62.32;101755.84;10427881;28;20045;-73
2022/09/04 10:19:10;;;;;;;3.25;1.75;;;;;;;24.13;62.19;101771.31;10413358;28;20058;-75
2022/09/04 10:24:34;;;;;;;5.57;1.63;;;;;;;24.32;62.86;101762.59;10414336;28;20038;-75
2022/09/04 10:30:02;;;;;;;3.45;1.60;;;;;;;24.54;62.92;101763.69;10422871;28;20041;-74
2022/09/04 10:35:24;;;;;;;5.03;1.52;;;;;;;24.58;61.78;101759.06;10375193;28;20041;-86
2022/09/04 10:40:52;;;;;;;5.15;1.70;;;;;;;24.57;61.36;101754.59;10434074;28;20037;-76
2022/09/04 10:45:56;;;;;;;3.13;1.30;;;;;;;24.76;59.96;101746.69;10404672;28;20104;-79
2022/09/04 10:51:00;;;;;;;3.75;1.42;;;;;;;25.08;59.55;101733.25;10421500;28;20049;-81
2022/09/04 10:56:18;;;;;;;2.72;2.00;;;;;;;25.44;58.06;101743.34;10434216;28;20052;-76
2022/09/04 11:01:36;;;;;;;3.78;1.80;;;;;;;25.91;58.48;101757.50;10444015;28;20049;-80
2022/09/04 11:07:01;;;;;;;1.92;1.40;;;;;;;26.03;57.41;101745.50;10361615;28;20037;-84
2022/09/04 11:12:31;;;;;;;4.57;1.23;;;;;;;26.00;55.65;101742.53;10415965;28;20123;-88
2022/09/04 11:17:44;;;;;;;4.22;1.60;;;;;;;26.15;56.48;101745.63;10417829;28;20044;-84
2022/09/04 11:23:22;;;;;;;2.60;1.17;;;;;;;26.28;55.62;101743.72;10455792;28;20463;-84
2022/09/04 11:28:46;;;;;;;5.32;1.67;;;;;;;26.47;54.71;101736.78;10401292;28;20060;-84
2022/09/04 11:34:20;;;;;;;4.00;1.23;;;;;;;26.37;55.08;101738.00;10420739;28;20109;-81
2022/09/04 11:39:50;;;;;;;3.13;1.27;;;;;;;26.07;54.33;101723.91;10378860;28;20061;-78
2022/09/04 11:45:09;;;;;;;8.68;2.13;;;;;;;26.37;55.03;101747.28;10413935;28;20168;-83
2022/09/04 11:50:15;;;;;;;3.72;1.40;;;;;;;26.89;52.79;101739.66;10420165;28;20424;-78
2022/09/04 11:55:37;;;;;;;4.63;1.50;;;;;;;27.31;52.37;101739.66;10453939;28;20263;-82
2022/09/04 12:01:08;;;;;;;2.63;1.23;;;;;;;27.88;52.35;101738.84;10402395;28;20105;-81
2022/09/04 12:06:14;;;;;;;7.50;2.35;;;;;;;28.58;49.85;101726.59;10399959;28;20033;-86
2022/09/04 12:11:36;;;;;;;4.00;1.60;;;;;;;28.95;48.32;101729.31;10401228;28;20041;-83
2022/09/04 12:17:00;;;;;;;3.45;1.55;;;;;;;29.40;48.15;101728.22;10454729;28;20113;-75
2022/09/04 12:22:23;;;;;;;4.40;1.40;;;;;;;29.23;48.84;101737.88;10415547;28;20045;-79
2022/09/04 12:27:39;;;;;;;2.72;1.70;;;;;;;29.25;47.70;101732.66;10416925;28;20077;-76
2022/09/04 12:33:01;;;;;;;8.02;1.52;;;;;;;30.05;47.53;101725.06;10428247;28;20052;-80
2022/09/04 12:38:29;;;;;;;3.55;1.50;;;;;;;30.35;45.97;101722.56;10425499;28;20067;-73
2022/09/04 12:43:44;;;;;;;6.38;1.77;;;;;;;30.86;44.00;101712.31;10388639;28;20046;-77
2022/09/04 12:49:03;;;;;;;3.47;1.35;;;;;;;30.74;45.08;101724.66;10413846;28;20038;-75
2022/09/04 12:54:19;;;;;;;2.85;1.92;;;;;;;31.01;44.07;101702.94;10429641;28;20048;-73
2022/09/04 12:59:56;;;;;;;4.18;1.48;;;;;;;31.00;43.68;101706.13;10456255;28;20068;-72
2022/09/04 13:05:32;;;;;;;2.97;1.20;;;;;;;31.28;42.46;101697.38;10455574;28;20442;-75
2022/09/04 13:10:37;;;;;;;2.90;1.25;;;;;;;31.21;42.09;101705.75;10399726;28;20033;-74
2022/09/04 13:16:00;;;;;;;;;;;;;;;31.61;41.90;101713.00;10420182;28;20072;-75
2022/09/04 13:21:38;;;;;;;3.50;1.30;;;;;;;32.03;41.53;101707.28;10455424;28;19952;-74
2022/09/04 13:27:14;;;;;;;2.65;1.13;;;;;;;32.17;40.23;101707.50;10454302;28;20051;-70
2022/09/04 13:32:46;;;;;;;3.38;1.20;;;;;;;32.91;40.31;101716.69;10382590;28;20041;-71
2022/09/04 13:37:53;;;;;;;5.15;1.63;;;;;;;33.04;39.58;101715.22;10396756;28;20565;-69
2022/09/04 13:43:22;;;;;;;2.17;1.10;;;;;;;32.19;40.08;101709.97;10376091;28;20566;-71
2022/09/04 13:48:42;;;;;;;1.38;1.23;;;;;;;32.13;39.45;101711.50;10407991;28;20045;-73
2022/09/04 13:54:16;;;;;;;1.52;1.30;;;;;;;32.73;40.02;101722.97;10381004;28;20088;-72
2022/09/04 13:59:17;;;;;;;3.80;1.40;;;;;;;32.98;39.76;101711.06;10415480;28;20052;-71
2022/09/04 14:04:22;;;;;;;3.85;1.13;;;;;;;32.64;38.70;101695.97;10403679;28;20116;-72
2022/09/04 14:09:23;;;;;;;;;;;;;;;32.34;38.99;101720.38;10421203;28;20049;-71
2022/09/04 14:15:04;;;;;;;3.28;1.15;;;;;;;31.98;39.43;101716.94;10410910;28;19928;-71
2022/09/04 14:20:10;;;;;;;2.60;1.08;;;;;;;32.04;40.93;101730.88;10377215;28;20064;-71
2022/09/04 14:25:14;;;;;;;1.83;1.05;;;;;;;32.44;39.85;101729.47;10450932;28;20041;-72
2022/09/04 14:30:21;;;;;;;3.03;1.50;;;;;;;32.50;39.52;101725.91;10454415;28;20438;-70
2022/09/04 14:35:27;;;;;;;4.70;1.30;;;;;;;31.88;40.28;101722.47;10359592;28;20038;-69
2022/09/04 14:40:29;;;;;;;3.55;1.20;;;;;;;31.53;40.66;101724.28;10392419;28;20049;-71
2022/09/04 14:45:49;;;;;;;1.98;1.20;;;;;;;30.94;41.78;101722.66;10377775;28;20538;-73
2022/09/04 14:50:52;;;;;;;5.72;1.42;;;;;;;30.77;42.32;101727.56;10414996;28;20364;-73
2022/09/04 14:56:25;;;;;;;3.45;1.83;;;;;;;30.31;42.86;101738.72;10435132;28;20488;-73
2022/09/04 15:01:27;;;;;;;5.30;1.15;;;;;;;30.65;42.78;101730.53;10427583;28;20080;-76
2022/09/04 15:06:52;;;;;;;9.18;1.45;;;;;;;30.82;41.82;101695.19;10410905;28;20041;-77
2022/09/04 15:11:55;;;;;;;4.22;1.67;;;;;;;31.40;41.58;101714.25;10430503;28;20044;-75
2022/09/04 15:17:02;;;;;;;1.15;1.05;;;;;;;31.49;41.49;101720.53;10424721;28;20072;-76
2022/09/04 15:22:14;;;;;;;2.47;1.30;;;;;;;31.66;41.03;101730.59;10400339;28;20038;-76
2022/09/04 15:27:29;;;;;;;2.38;1.23;;;;;;;32.15;40.79;101737.56;10418914;28;20092;-77
2022/09/04 15:32:38;;;;;;;3.05;1.27;;;;;;;32.16;40.39;101722.13;10402813;28;20482;-77
2022/09/04 15:37:40;;;;;;;8.77;2.42;;;;;;;32.32;40.94;101731.31;10388128;28;20046;-76
2022/09/04 15:42:45;;;;;;;1.75;1.35;;;;;;;32.26;39.98;101707.22;10385382;28;20045;-77
2022/09/04 15:48:22;;;;;;;2.70;1.40;;;;;;;32.24;40.54;101729.56;10417225;28;20493;-77
2022/09/04 15:53:34;;;;;;;4.30;1.30;;;;;;;31.85;40.82;101714.66;10379316;28;20042;-76
2022/09/04 15:58:52;;;;;;;2.20;1.23;;;;;;;31.03;41.51;101728.13;10422139;28;20053;-77
2022/09/04 16:04:30;;;;;;;1.80;1.30;;;;;;;29.81;43.42;101742.28;10442730;28;20465;-77
2022/09/04 16:09:35;;;;;;;6.55;1.55;;;;;;;28.83;45.63;101743.53;10457908;28;20045;-78
2022/09/04 16:14:48;;;;;;;4.38;1.73;;;;;;;28.02;47.11;101732.03;10416373;28;20049;-78
2022/09/04 16:19:56;;;;;;;3.85;1.58;;;;;;;27.58;49.16;101758.00;10391904;28;20042;-77
2022/09/04 16:25:06;;;;;;;3.75;1.70;;;;;;;27.14;49.15;101757.56;10415236;28;20121;-77
2022/09/04 16:30:07;;;;;;;3.90;1.60;;;;;;;26.72;50.08;101744.28;10401838;28;20037;-77
2022/09/04 16:35:13;;;;;;;2.70;1.90;;;;;;;26.32;51.07;101750.34;10415316;28;20068;-78
2022/09/04 16:41:00;;;;;;;2.22;1.33;;;;;;;25.99;52.61;101774.75;10429766;28;20037;-78
2022/09/04 16:46:12;;;;;;;4.35;1.52;;;;;;;25.68;53.92;101781.44;10400728;28;20042;-77
2022/09/04 16:51:36;;;;;;;2.15;1.42;;;;;;;25.24;54.81;101770.25;10445315;28;20064;-77
2022/09/04 16:56:42;;;;;;;3.35;1.50;;;;;;;25.01;55.32;101785.59;10438833;28;20048;-77
2022/09/04 17:02:30;;;;;;;3.50;1.90;;;;;;;24.63;56.02;101784.25;10377197;28;20048;-77
2022/09/04 17:07:37;;;;;;;3.60;1.30;;;;;;;24.37;56.56;101787.81;10440986;28;20395;-76
2022/09/04 17:12:47;;;;;;;3.58;1.50;;;;;;;24.06;57.05;101779.41;10384422;28;20833;-77
2022/09/04 17:17:49;;;;;;;3.13;1.33;;;;;;;24.05;58.00;101803.06;10445153;28;20064;-76
2022/09/04 17:23:12;;;;;;;4.18;2.47;;;;;;;23.91;59.23;101805.13;10422045;28;20041;-77
2022/09/04 17:28:21;;;;;;;1.73;1.33;;;;;;;23.47;59.15;101759.03;10402502;28;20096;-77
2022/09/04 17:33:31;;;;;;;4.20;1.17;;;;;;;23.63;59.67;101819.34;10417537;28;20094;-76
2022/09/04 17:38:59;;;;;;;3.17;1.40;;;;;;;23.47;60.60;101821.69;10450811;28;20045;-75
2022/09/04 17:44:03;;;;;;;3.08;1.60;;;;;;;23.33;61.84;101826.53;10424742;28;20041;-76
2022/09/04 17:49:21;;;;;;;3.45;1.48;;;;;;;23.09;62.01;101822.06;10429436;28;20057;-76
2022/09/04 17:54:22;;;;;;;3.03;1.73;;;;;;;23.06;62.96;101844.31;10413229;28;20044;-76
2022/09/04 17:59:37;;;;;;;6.72;2.28;;;;;;;22.78;63.53;101827.50;10427868;28;20448;-78
2022/09/04 18:04:46;;;;;;;3.60;1.58;;;;;;;22.70;63.98;101831.88;10415689;28;20048;-78
2022/09/04 18:10:08;;;;;;;5.03;1.63;;;;;;;22.48;64.75;101837.38;10389418;28;20053;-78
2022/09/04 18:15:19;;;;;;;6.28;2.45;;;;;;;22.39;65.88;101847.66;10395269;28;20099;-78
2022/09/04 18:20:30;;;;;;;3.90;1.83;;;;;;;22.27;66.81;101840.59;10391621;28;20050;-77
2022/09/04 18:25:42;;;;;;;5.60;1.70;;;;;;;22.15;67.46;101845.84;10412861;28;20040;-77
2022/09/04 18:31:17;;;;;;;4.43;1.92;;;;;;;22.07;68.79;101869.00;10370912;28;20518;-77
2022/09/04 18:36:50;;;;;;;3.85;1.65;;;;;;;21.88;69.56;101866.25;10408624;28;20054;-77
2022/09/04 18:41:50;;;;;;;2.92;1.88;;;;;;;21.79;70.05;101874.53;10411464;28;20359;-77
2022/09/04 18:46:51;;;;;;;19.75;14.50;;;;;;;21.51;70.99;101839.97;10427278;28;20091;-77
2022/09/04 18:51:56;;;;;;;7.13;1.80;;;;;;;21.71;71.17;101884.47;10438506;28;20504;-77
2022/09/04 18:57:00;;;;;;;3.28;1.50;;;;;;;21.67;71.50;101877.00;10383887;28;20036;-77
2022/09/04 19:02:17;;;;;;;4.95;1.90;;;;;;;21.69;71.94;101891.53;10432195;28;20057;-77
2022/09/04 19:07:46;;;;;;;2.35;1.50;;;;;;;21.64;72.86;101909.25;10418851;28;20034;-76
2022/09/04 19:12:46;;;;;;;2.13;1.67;;;;;;;21.55;72.53;101913.88;10418608;28;20052;-77
2022/09/04 19:17:48;;;;;;;7.68;1.75;;;;;;;21.41;73.40;101899.75;10419104;28;20072;-78
2022/09/04 19:22:53;;;;;;;5.03;1.80;;;;;;;21.36;73.91;101905.44;10409146;28;20126;-77
2022/09/04 19:28:00;;;;;;;2.38;1.40;;;;;;;21.29;74.27;101918.97;10421612;28;20063;-77
2022/09/04 19:33:09;;;;;;;6.38;1.52;;;;;;;21.12;74.52;101909.13;10412716;28;20048;-78
2022/09/04 19:38:25;;;;;;;4.03;2.25;;;;;;;21.05;75.69;101914.28;10405959;28;20033;-77
2022/09/04 19:43:43;;;;;;;4.17;1.60;;;;;;;20.96;75.93;101919.72;10416843;28;20049;-78
2022/09/04 19:49:13;;;;;;;3.67;1.60;;;;;;;20.88;76.43;101922.34;10402599;28;20083;-79
2022/09/04 19:54:14;;;;;;;4.93;2.08;;;;;;;20.73;76.56;101914.94;10418167;28;20072;-79
2022/09/04 19:59:36;;;;;;;4.80;1.70;;;;;;;20.66;76.90;101920.06;10416000;28;20033;-78
2022/09/04 20:04:40;;;;;;;5.65;1.58;;;;;;;20.53;77.11;101918.78;10457173;28;20021;-78
2022/09/04 20:09:45;;;;;;;4.78;1.92;;;;;;;20.47;77.57;101914.38;10396595;28;20072;-78
2022/09/04 20:14:53;;;;;;;4.07;1.60;;;;;;;20.28;76.92;101889.13;10412585;28;20037;-78
2022/09/04 20:19:59;;;;;;;4.78;1.90;;;;;;;20.49;77.16;101926.94;10413866;28;20103;-76
2022/09/04 20:25:05;;;;;;;3.33;1.77;;;;;;;20.52;77.18;101928.31;10414867;28;20041;-77
2022/09/04 20:30:10;;;;;;;5.68;2.20;;;;;;;20.50;77.49;101939.78;10422345;28;20029;-76
2022/09/04 20:35:53;;;;;;;7.13;2.00;;;;;;;20.43;77.72;101928.13;10382665;28;20051;-77
2022/09/04 20:40:56;;;;;;;10.18;2.85;;;;;;;20.32;78.12;101934.97;10364046;28;20049;-76
2022/09/04 20:46:11;;;;;;;4.38;1.83;;;;;;;20.28;78.65;101948.69;10372548;28;20033;-76
2022/09/04 20:51:23;;;;;;;2.88;2.00;;;;;;;20.16;79.10;101935.09;10372679;28;20098;-76
2022/09/04 20:57:08;;;;;;;3.55;1.73;;;;;;;20.02;80.00;101933.25;10411537;28;20555;-77
2022/09/04 21:02:46;;;;;;;4.35;2.05;;;;;;;19.94;81.12;101940.31;10412800;28;20071;-77
2022/09/04 21:08:12;;;;;;;4.32;1.90;;;;;;;19.77;81.79;101932.34;10453995;28;20045;-76
2022/09/04 21:13:46;;;;;;;2.17;1.75;;;;;;;19.72;82.33;101949.13;10399899;28;20293;-76
2022/09/04 21:18:55;;;;;;;2.67;1.88;;;;;;;19.62;83.34;101947.22;10410180;28;20539;-76
2022/09/04 21:24:09;;;;;;;4.43;2.08;;;;;;;19.59;84.17;101955.34;10413256;28;20397;-76
2022/09/04 21:29:16;;;;;;;4.43;2.30;;;;;;;19.61;84.75;101967.06;10412099;28;20029;-76
2022/09/04 21:34:42;;;;;;;3.58;2.10;;;;;;;19.45;85.16;101952.34;10413171;28;20045;-76
2022/09/04 21:40:18;;;;;;;6.03;2.40;;;;;;;19.50;85.66;101960.72;10397987;28;20033;-77
2022/09/04 21:45:23;;;;;;;5.90;2.30;;;;;;;19.48;86.36;101958.19;10404936;28;20284;-77
2022/09/04 21:50:33;;;;;;;3.67;2.30;;;;;;;19.46;86.71;101959.63;10412970;28;20104;-77
2022/09/04 21:55:48;;;;;;;4.40;2.10;;;;;;;19.38;86.99;101954.63;10415549;28;20087;-76
2022/09/04 22:01:11;;;;;;;2.72;2.42;;;;;;;19.38;87.19;101969.44;10418114;28;20516;-75
2022/09/04 22:06:29;;;;;;;4.93;2.00;;;;;;;19.31;87.97;101961.38;10380484;28;20037;-76
2022/09/04 22:12:00;;;;;;;4.15;2.30;;;;;;;19.25;88.13;101964.47;10416846;28;20095;-76
2022/09/04 22:17:04;;;;;;;5.63;2.30;;;;;;;19.15;88.54;101971.75;10414333;28;20091;-76
2022/09/04 22:22:20;;;;;;;3.72;2.30;;;;;;;19.09;89.29;101972.91;10424524;28;20045;-76
2022/09/04 22:27:41;;;;;;;5.90;2.67;;;;;;;19.01;90.13;101967.91;10414632;28;20033;-76
2022/09/04 22:33:36;;;;;;;4.82;2.30;;;;;;;18.90;90.98;101975.50;10404178;28;20047;-76
2022/09/04 22:39:05;;;;;;;5.65;2.40;;;;;;;18.88;91.78;101982.47;10371350;28;20052;-78
2022/09/04 22:44:29;;;;;;;3.38;2.45;;;;;;;18.82;91.83;101967.69;10381522;28;20042;-76
2022/09/04 22:49:32;;;;;;;3.55;2.22;;;;;;;18.88;91.85;101971.31;10429978;28;20119;-76
2022/09/04 22:55:11;;;;;;;7.43;3.05;;;;;;;18.89;92.05;101970.19;10420725;28;20037;-76
2022/09/04 23:00:18;;;;;;;5.20;2.70;;;;;;;18.90;91.83;101966.28;10410744;28;20041;-76
2022/09/04 23:05:43;;;;;;;5.15;2.72;;;;;;;18.90;92.33;101961.53;10420235;28;20052;-76
2022/09/04 23:11:04;;;;;;;5.93;2.83;;;;;;;18.89;92.40;101961.81;10435552;28;20043;-76
2022/09/04 23:16:29;;;;;;;4.57;3.15;;;;;;;18.88;92.65;101976.91;10461118;28;20045;-76
2022/09/04 23:21:44;;;;;;;7.68;3.50;;;;;;;18.87;92.77;101975.22;10463147;28;20041;-77
2022/09/04 23:27:21;;;;;;;6.22;3.70;;;;;;;18.81;92.59;101966.03;10459911;28;20126;-77
2022/09/04 23:32:26;;;;;;;6.33;4.20;;;;;;;18.76;93.12;101961.25;10416074;28;20058;-77
2022/09/04 23:37:54;;;;;;;7.35;3.85;;;;;;;18.73;93.73;101967.41;10439638;28;20355;-77
2022/09/04 23:43:32;;;;;;;7.35;5.47;;;;;;;18.63;94.33;101961.03;10433835;28;20072;-77
2022/09/04 23:49:02;;;;;;;10.25;6.72;;;;;;;18.55;94.77;101962.44;10460017;28;20041;-77
2022/09/04 23:54:27;;;;;;;10.13;7.80;;;;;;;18.47;95.33;101965.81;10419337;28;20037;-77
2022/09/04 23:59:42;;;;;;;9.00;6.07;;;;;;;18.04;95.85;101913.16;10430931;28;20728;-77
